createdAt,value
2018-08-30T00:03:48.188Z,3.57
2018-08-30T00:09:43.192Z,3.36
2018-08-30T00:15:38.198Z,3.75
2018-08-30T00:21:33.201Z,3.83
2018-08-30T00:27:28.195Z,3.9
2018-08-30T00:33:23.216Z,3.91
2018-08-30T00:39:18.240Z,3.96
2018-08-30T00:45:13.207Z,3.73
2018-08-30T00:51:08.224Z,3.89
2018-08-30T00:57:03.279Z,4.22
2018-08-30T01:02:58.221Z,3.95
2018-08-30T01:08:53.247Z,4.02
2018-08-30T01:14:48.229Z,4.29
2018-08-30T01:20:43.240Z,4.01
2018-08-30T01:26:38.244Z,4.11
2018-08-30T01:32:33.242Z,4.39
2018-08-30T01:38:28.258Z,4.42
2018-08-30T01:44:23.267Z,4.39
2018-08-30T01:50:18.281Z,4.3
2018-08-30T01:56:13.277Z,4.46
2018-08-30T02:02:08.261Z,4.9
2018-08-30T02:08:03.272Z,4.32
2018-08-30T02:13:58.309Z,4.03
2018-08-30T02:19:53.284Z,4.2
2018-08-30T02:25:48.310Z,4.12
2018-08-30T02:31:43.300Z,4.47
2018-08-30T02:37:38.336Z,4.23
2018-08-30T02:43:33.321Z,4.49
2018-08-30T02:49:28.333Z,4.28
2018-08-30T02:55:23.346Z,4.96
2018-08-30T03:01:18.308Z,4.57
2018-08-30T03:07:13.329Z,4.2
2018-08-30T03:13:08.321Z,4.54
2018-08-30T03:19:03.389Z,4.02
2018-08-30T03:24:58.339Z,4.62
2018-08-30T03:30:53.385Z,4.49
2018-08-30T03:36:48.375Z,4.23
2018-08-30T03:42:43.362Z,4.29
2018-08-30T03:48:38.338Z,3.94
2018-08-30T03:54:33.366Z,4.4
2018-08-30T04:00:28.350Z,4.86
2018-08-30T04:06:23.370Z,4.68
2018-08-30T04:12:18.358Z,4.37
2018-08-30T04:18:13.355Z,4.4
2018-08-30T04:24:08.378Z,4.82
2018-08-30T04:30:03.584Z,4.2
2018-08-30T04:35:58.608Z,4.65
2018-08-30T04:41:53.440Z,4.91
2018-08-30T04:47:48.383Z,4.76
2018-08-30T04:53:43.389Z,4.84
2018-08-30T04:59:38.451Z,4.52
2018-08-30T05:05:33.400Z,5.02
2018-08-30T05:11:28.445Z,5.24
2018-08-30T05:17:23.406Z,5.22
2018-08-30T05:23:18.436Z,4.97
2018-08-30T05:29:13.436Z,4.6
2018-08-30T05:35:08.553Z,4.28
2018-08-30T05:41:03.419Z,4.48
2018-08-30T05:46:58.481Z,4.67
2018-08-30T05:52:53.432Z,5.23
2018-08-30T05:58:48.478Z,5.6
2018-08-30T06:04:43.468Z,5.86
2018-08-30T06:10:38.432Z,5.87
2018-08-30T06:16:33.468Z,7.06
2018-08-30T06:22:28.497Z,7.83
2018-08-30T06:28:23.526Z,8.61
2018-08-30T06:34:18.473Z,7.74
2018-08-30T06:40:13.463Z,7.59
2018-08-30T06:46:08.492Z,7.32
2018-08-30T06:52:03.512Z,8.31
2018-08-30T06:57:58.500Z,6.2
2018-08-30T07:03:53.495Z,6.57
2018-08-30T07:09:48.505Z,6.32
2018-08-30T07:15:43.507Z,6.31
2018-08-30T07:21:38.517Z,5.38
2018-08-30T07:27:33.535Z,6.5
2018-08-30T07:33:28.522Z,8.11
2018-08-30T07:39:23.577Z,7.1
2018-08-30T07:45:18.529Z,7.42
2018-08-30T07:51:13.595Z,7.11
2018-08-30T07:57:08.546Z,6.75
2018-08-30T08:03:03.555Z,6.69
2018-08-30T08:08:58.543Z,6.94
2018-08-30T08:14:53.537Z,7.83
2018-08-30T08:20:48.555Z,8.24
2018-08-30T08:26:43.557Z,7.37
2018-08-30T08:32:38.587Z,7.3
2018-08-30T08:38:33.563Z,7.69
2018-08-30T08:44:28.584Z,6.74
2018-08-30T08:50:23.578Z,6.49
2018-08-30T08:56:18.598Z,6.78
2018-08-30T09:02:13.614Z,7.13
2018-08-30T09:08:08.603Z,6.21
2018-08-30T09:14:03.666Z,6.81
2018-08-30T09:19:58.621Z,5.49
2018-08-30T09:25:53.677Z,5.28
2018-08-30T09:31:48.617Z,4.68
2018-08-30T09:37:43.636Z,4.13
2018-08-30T09:43:38.625Z,4.35
2018-08-30T09:49:33.658Z,3.67
2018-08-30T09:55:28.624Z,3.55
2018-08-30T10:01:23.678Z,4.51
2018-08-30T10:07:18.702Z,4.03
2018-08-30T10:13:13.653Z,4.23
2018-08-30T10:19:08.661Z,3.91
2018-08-30T10:25:03.756Z,4.74
2018-08-30T10:30:58.672Z,4.42
2018-08-30T10:36:53.668Z,4.33
2018-08-30T10:42:48.727Z,4.83
2018-08-30T10:48:43.681Z,4.83
2018-08-30T10:54:38.691Z,4.68
2018-08-30T11:00:33.714Z,4.7
2018-08-30T11:06:28.711Z,4.59
2018-08-30T11:12:23.732Z,4.49
2018-08-30T11:18:18.740Z,4.59
2018-08-30T11:24:13.716Z,4.63
2018-08-30T11:30:08.721Z,4.51
2018-08-30T11:36:03.722Z,4.64
2018-08-30T11:41:58.738Z,5.13
2018-08-30T11:47:53.802Z,5.39
2018-08-30T11:53:48.773Z,5.39
2018-08-30T11:59:43.743Z,4.83
2018-08-30T12:05:38.776Z,4.83
2018-08-30T12:11:33.844Z,5.15
2018-08-30T12:17:28.823Z,4.57
2018-08-30T12:23:23.793Z,4.46
2018-08-30T12:29:18.828Z,5.08
2018-08-30T12:35:13.867Z,4.47
2018-08-30T12:41:08.845Z,4.56
2018-08-30T12:47:03.790Z,4.24
2018-08-30T12:52:58.999Z,4.81
2018-08-30T12:58:53.965Z,4.34
2018-08-30T13:04:49.187Z,4.53
2018-08-30T13:10:44.209Z,4.12
2018-08-30T13:16:39.207Z,4.5
2018-08-30T13:22:34.388Z,4.46
2018-08-30T13:28:29.148Z,4.47
2018-08-30T13:34:24.587Z,4.67
2018-08-30T13:40:19.578Z,4.89
2018-08-30T13:46:14.415Z,4.93
2018-08-30T13:52:09.374Z,4.95
2018-08-30T13:58:04.360Z,5.39
2018-08-30T14:03:59.154Z,5.49
2018-08-30T14:09:54.182Z,5.28
2018-08-30T14:15:48.909Z,6.55
2018-08-30T14:21:43.897Z,5.82
2018-08-30T14:27:38.909Z,5.6
2018-08-30T14:33:33.919Z,5.34
2018-08-30T14:39:28.919Z,5.4
2018-08-30T14:45:23.922Z,5.08
2018-08-30T14:51:19.019Z,4.92
2018-08-30T14:57:13.907Z,5.43
2018-08-30T15:03:09.035Z,4.77
2018-08-30T15:09:03.928Z,7.8
2018-08-30T15:14:58.997Z,5.72
2018-08-30T15:20:53.986Z,4.65
2018-08-30T15:26:49.043Z,4.42
2018-08-30T15:32:43.940Z,4.33
2018-08-30T15:38:38.957Z,4.13
2018-08-30T15:44:33.965Z,4.22
2018-08-30T15:50:28.973Z,4.19
2018-08-30T15:56:23.958Z,4.49
2018-08-30T16:02:18.996Z,4.3
2018-08-30T16:08:13.992Z,4.55
2018-08-30T16:14:08.981Z,4.63
2018-08-30T16:20:03.979Z,4.73
2018-08-30T16:25:59.016Z,4.5
2018-08-30T16:31:53.995Z,3.97
2018-08-30T16:37:49.069Z,5
2018-08-30T16:43:44.005Z,4.87
2018-08-30T16:49:39.012Z,5.24
2018-08-30T16:55:34.040Z,5.13
2018-08-30T17:01:29.040Z,4.81
2018-08-30T17:07:24.039Z,4.93
2018-08-30T17:13:19.051Z,5.01
2018-08-30T17:19:14.083Z,4.82
2018-08-30T17:25:09.056Z,5.38
2018-08-30T17:31:04.125Z,5.2
2018-08-30T17:36:59.300Z,5.67
2018-08-30T17:42:54.061Z,5.41
2018-08-30T17:48:49.109Z,4.79
2018-08-30T17:54:44.080Z,5.65
2018-08-30T18:00:39.101Z,5.36
2018-08-30T18:06:34.165Z,5.99
2018-08-30T18:12:29.063Z,6.06
2018-08-30T18:18:24.192Z,6.37
2018-08-30T18:24:19.238Z,6.01
2018-08-30T18:30:14.084Z,6.28
2018-08-30T18:36:09.169Z,6
2018-08-30T18:42:04.127Z,5.76
2018-08-30T18:47:59.143Z,6.23
2018-08-30T18:53:54.174Z,5.95
2018-08-30T18:59:49.119Z,5.67
2018-08-30T19:05:44.161Z,5.54
2018-08-30T19:11:39.124Z,6.35
2018-08-30T19:17:34.187Z,6.88
2018-08-30T19:23:29.164Z,6.99
2018-08-30T19:29:24.178Z,6.74
2018-08-30T19:35:19.197Z,6.27
2018-08-30T19:41:14.187Z,6.02
2018-08-30T19:47:09.182Z,6.51
2018-08-30T19:53:04.182Z,6.89
2018-08-30T19:58:59.167Z,7.22
2018-08-30T20:04:54.194Z,6.68
2018-08-30T20:10:49.203Z,6.91
2018-08-30T20:16:44.250Z,6.09
2018-08-30T20:22:39.800Z,6.47
2018-08-30T20:28:34.206Z,6.57
2018-08-30T20:34:29.204Z,7.28
2018-08-30T20:40:24.209Z,6.58
2018-08-30T20:46:19.205Z,7.1
2018-08-30T20:52:14.211Z,6.83
2018-08-30T20:58:09.233Z,7.08
2018-08-30T21:04:04.234Z,7.04
2018-08-30T21:09:59.240Z,7.29
2018-08-30T21:15:54.244Z,7.46
2018-08-30T21:21:49.248Z,7.5
2018-08-30T21:27:44.351Z,8.02
2018-08-30T21:33:39.263Z,7.66
2018-08-30T21:39:34.284Z,7.46
2018-08-30T21:45:29.249Z,6.91
2018-08-30T21:51:24.257Z,7.05
2018-08-30T21:57:19.292Z,7.44
2018-08-30T22:03:14.289Z,7.62
2018-08-30T22:09:09.302Z,7.54
2018-08-30T22:15:04.281Z,7.37
2018-08-30T22:20:59.358Z,7.8
2018-08-30T22:26:54.287Z,8.04
2018-08-30T22:32:49.293Z,7.6
2018-08-30T22:38:44.320Z,6.79
2018-08-30T22:44:39.315Z,7.18
2018-08-30T22:50:34.339Z,7.98
2018-08-30T22:56:29.323Z,7.82
2018-08-30T23:02:24.333Z,8.68
2018-08-30T23:08:19.327Z,8.09
2018-08-30T23:14:14.353Z,7.11
2018-08-30T23:20:09.350Z,7.23
2018-08-30T23:26:04.386Z,7.52
2018-08-30T23:31:59.340Z,7.4
2018-08-30T23:37:54.374Z,7.93
2018-08-30T23:43:49.354Z,8.61
2018-08-30T23:49:44.349Z,7.81
2018-08-30T23:55:39.379Z,8.24
